»·PEaware :: WAT463 KOXR-KLGB

WAT463 :: KOXR-KLGB

FLIGHT INFORMATION

Flight Status: Arrived
Operator:
Walker Air Transport
More flights by this operator :: More flights under this callsign
Pilot: Dan S. (31216)
Aircraft: CESSNA 182 SKYLANE
(C182)
More flights by this aircraft type
Origin: KOXR Oxnard
United States
Destination: KLGB Long Beach
United States
More flights between these airports :: More routes between these airports
Route: VTU044 GINNA V326 VNY V186 ADAMM V394 SLI
File this flight plan on PilotEdge
Remarks:
Altitude:
(Current/Filed)
5,000ft
Speed:
(Current/Filed)
140kts
Departed: 26-Jul-21 09:49 PM
Arrived: 26-Jul-21 10:44 PM
Distance/Time
Traveled:
57nm/0:55
Distance/Time
To Go:
Arrived

Flight Plot

Page will automatically refresh every two minutes.


Map Options




Map Legend


Flown Route
Filed Route
Departure Airport
Arrival Airport
Navaid (VOR, NDB)
Fix

Horizontal Profiles

Position Reports

Time Latitude Longitude Heading Altitude Ground
Speed
26-Jul-21 21:33 34.198873 -119.198279 82 43ft 0kts
26-Jul-21 21:35 34.198873 -119.198279 82 43ft 0kts
26-Jul-21 21:35 34.198873 -119.198279 82 43ft 0kts
26-Jul-21 21:36 34.198873 -119.198279 82 43ft 0kts
26-Jul-21 21:37 34.198873 -119.198279 82 43ft 0kts
26-Jul-21 21:38 34.198873 -119.198279 82 43ft 0kts
26-Jul-21 21:39 34.198873 -119.198279 82 43ft 0kts
26-Jul-21 21:40 34.198873 -119.198279 82 43ft 0kts
26-Jul-21 21:41 34.198873 -119.198279 82 43ft 0kts
26-Jul-21 21:42 34.198873 -119.198279 82 43ft 0kts
26-Jul-21 21:43 34.198858 -119.198189 121 43ft 5kts
26-Jul-21 21:44 34.199919 -119.197468 348 43ft 0kts
26-Jul-21 21:45 34.199919 -119.197469 348 43ft 0kts
26-Jul-21 21:46 34.199919 -119.197468 348 43ft 0kts
26-Jul-21 21:47 34.199919 -119.197468 348 43ft 0kts
26-Jul-21 21:48 34.200766 -119.200371 268 43ft 60kts
26-Jul-21 21:49 34.200975 -119.230012 266 1015ft 86kts
26-Jul-21 21:50 34.199055 -119.260452 266 1949ft 93kts
26-Jul-21 21:51 34.197299 -119.295293 266 2630ft 107kts
26-Jul-21 21:52 34.205061 -119.326109 359 3307ft 100kts
26-Jul-21 21:53 34.222723 -119.307782 90 3997ft 83kts
26-Jul-21 21:54 34.223305 -119.279726 92 4705ft 84kts
26-Jul-21 21:55 34.223424 -119.247661 92 5004ft 115kts
26-Jul-21 21:56 34.223523 -119.205826 92 5000ft 129kts
26-Jul-21 21:57 34.223562 -119.161979 93 4999ft 130kts
26-Jul-21 21:58 34.223539 -119.117879 93 4990ft 131kts
26-Jul-21 21:59 34.223492 -119.073748 92 4990ft 131kts
26-Jul-21 22:00 34.223428 -119.029723 92 4990ft 131kts
26-Jul-21 22:01 34.223342 -118.985762 93 4990ft 131kts
26-Jul-21 22:02 34.223240 -118.941641 93 4990ft 131kts
26-Jul-21 22:03 34.223122 -118.897587 93 4990ft 131kts
26-Jul-21 22:04 34.222984 -118.853399 92 4962ft 132kts
26-Jul-21 22:05 34.222987 -118.809361 92 4962ft 131kts
26-Jul-21 22:06 34.223087 -118.765215 92 4962ft 131kts
26-Jul-21 22:07 34.223179 -118.721402 92 4990ft 131kts
26-Jul-21 22:08 34.223251 -118.676889 92 4989ft 132kts
26-Jul-21 22:09 34.223310 -118.632328 92 4989ft 132kts
26-Jul-21 22:10 34.223354 -118.587714 92 4989ft 132kts
26-Jul-21 22:11 34.223386 -118.543119 92 4989ft 132kts
26-Jul-21 22:12 34.223393 -118.498612 93 4988ft 132kts
26-Jul-21 22:13 34.212668 -118.456646 110 4989ft 130kts
26-Jul-21 22:14 34.200163 -118.414853 111 4998ft 130kts
26-Jul-21 22:15 34.187590 -118.373396 111 4998ft 130kts
26-Jul-21 22:16 34.174888 -118.331598 111 5000ft 130kts
26-Jul-21 22:17 34.162153 -118.289741 111 4999ft 131kts
26-Jul-21 22:18 34.149523 -118.248280 111 4999ft 131kts
26-Jul-21 22:19 34.136695 -118.206214 111 4990ft 134kts
26-Jul-21 22:20 34.123728 -118.163750 111 4990ft 135kts
26-Jul-21 22:21 34.110647 -118.121014 111 4963ft 136kts
26-Jul-21 22:22 34.097572 -118.078325 111 4953ft 135kts
26-Jul-21 22:23 34.084495 -118.035719 111 4953ft 135kts
26-Jul-21 22:24 34.071416 -117.993166 111 4953ft 135kts
26-Jul-21 22:25 34.058351 -117.950710 111 4953ft 135kts
26-Jul-21 22:26 34.045327 -117.908450 111 4955ft 135kts
26-Jul-21 22:27 34.032166 -117.865806 111 4953ft 135kts
26-Jul-21 22:28 34.015532 -117.827008 164 4970ft 134kts
26-Jul-21 22:29 33.978360 -117.835843 197 4971ft 139kts
26-Jul-21 22:30 33.942234 -117.853090 198 4980ft 140kts
26-Jul-21 22:31 33.902878 -117.860477 181 4611ft 151kts
26-Jul-21 22:32 33.860656 -117.864075 181 4110ft 150kts
26-Jul-21 22:33 33.819350 -117.867400 181 3612ft 148kts
26-Jul-21 22:34 33.778298 -117.870528 181 3113ft 147kts
26-Jul-21 22:35 33.746528 -117.897334 220 2985ft 139kts
26-Jul-21 22:36 33.719993 -117.930176 221 2865ft 137kts
26-Jul-21 22:37 33.696063 -117.964743 268 2155ft 142kts
26-Jul-21 22:38 33.706790 -118.010423 294 1998ft 142kts
26-Jul-21 22:39 33.731561 -118.047210 311 1997ft 139kts
26-Jul-21 22:40 33.758000 -118.079193 312 1533ft 133kts
26-Jul-21 22:41 33.782842 -118.109113 311 878ft 117kts
26-Jul-21 22:42 33.801341 -118.131485 310 354ft 79kts
26-Jul-21 22:43 33.814263 -118.147124 314 49ft 39kts
26-Jul-21 22:44 33.815763 -118.150465 206 49ft 0kts
26-Jul-21 22:45 33.814812 -118.151281 143 49ft 14kts
26-Jul-21 22:46 33.812471 -118.153544 273 49ft 0kts
26-Jul-21 22:47 33.812471 -118.153544 273 49ft 0kts
26-Jul-21 22:48 33.812471 -118.153544 273 49ft 0kts
26-Jul-21 22:49 33.812471 -118.153544 273 49ft 0kts
26-Jul-21 22:50 33.812471 -118.153544 273 49ft 0kts
26-Jul-21 22:51 33.812471 -118.153544 273 49ft 0kts

Navigation Log

Ident Type
Flight plan parsing failed, navigation log unavailable